Kezdőlap
METAR-TAF:

METAR-TAF

Repülőterek :

Funchal, Madeira, Portugália

Cristiano Ronaldo nemzetközi repülőtér

földrajzi szélesség: 32-41-52N, földrajzi hosszúság: 016-46-28W, magasság: 59 m

Jelenlegi meteorológiai megfigyelések

A jelentés 24 perccel ezelõtt készült, 01:30 UTC
Északi szél 15 kt, észak-északnyugati és északkeleti között változik
Hőmérséklet 16°C
Páratartalom 72%
Légköri nyomás 1029 hPa
Látótávolság 10 km, vagy több
Szakadozott felhőzet 1600 lábon

METAR: LPMA 230130Z 01015KT 340V040 9999 BKN016 16/11 Q1029

Idő: 01:54 (01:54 UTC)

Előrejelzés

A jelentés 2 órával és 54 perccel ezelõtt készült, 23:00 UTC
Az előrejelzés 23-én 00 óra UTC és 23-én 24 óra UTC között érvényes
Észak-északkeleti szél 12 kt
Látótávolság 10 km, vagy több
Szórványos felhőzet 1500 lábon
23-én 00 óra UTC és 23-én 08 óra UTC között ideiglenes
Szakadozott felhőzet 1500 lábon

TAF: LPMA 222300Z 2300/2324 02012KT 9999 SCT015 TEMPO 2300/2308 BKN015

Meteorológiai megfigyelések és előrejelzések több, mint 4000 repülőtéren (METAR és TAF jelentéseket).

A térképen piros és sárga pontok jelzik az elérhető meteorológiai állomásokat.

Mozgassa az egeret a pont fölött, hogy megjelenjen az állomás neve.

Azután kattintson az időjárási megfigyelések és előrejelzések megtekintéséhez.

A térkép megváltoztatása: kattintson a fekete keresztel jelölt zöld gombra ráközelítéshez, a vonallal jelölt zöld gombra távolításhoz, vagy a zöld nyilakra a szomszédos térképek eléréséhez.


METAR-TAF: